Kezdőlap
METAR-TAF:

METAR-TAF

Repülőterek :

Monte Scuro, Olaszország

földrajzi szélesség: 39-20N, földrajzi hosszúság: 016-24E, magasság: 1710 m

Jelenlegi meteorológiai megfigyelések

A jelentés 1 órával és 10 perccel ezelõtt készült, 13:55 UTC
Dél-délnyugati szél 8 kt
Hőmérséklet 11°C
Páratartalom 35%
Légköri nyomás 1019 hPa
Látótávolság 10 km, vagy több
felhőtlen 1500 m magasságban, és nincs gomolyfelhõ

METAR: LIBQ 151355Z 21008KT CAVOK 11/M04 Q1019

Idő: 16:05 (15:05 UTC)


TAF: hiányzik

Meteorológiai megfigyelések és előrejelzések több, mint 4000 repülőtéren (METAR és TAF jelentéseket).

A térképen piros és sárga pontok jelzik az elérhető meteorológiai állomásokat.

Mozgassa az egeret a pont fölött, hogy megjelenjen az állomás neve.

Azután kattintson az időjárási megfigyelések és előrejelzések megtekintéséhez.

A térkép megváltoztatása: kattintson a fekete keresztel jelölt zöld gombra ráközelítéshez, a vonallal jelölt zöld gombra távolításhoz, vagy a zöld nyilakra a szomszédos térképek eléréséhez.


METAR-TAF: